Portada
METAR-TAF:

METAR-TAF

Aeroports :

Txengdu, Xina

latitud: 30-40N, longitud: 104-01E, altitud: 508 m

Observació

L'informe es va fer fa 12 minuts, a les 21:00 UTC
Vent calma
Temperatura 26°C
Humitat 94%
Pressió 1007 hPa
Visibilitat: 6000 m

METAR: ZUUU 142100Z 00000MPS 6000 NSC 26/25 Q1007 NOSIG

Hora: 05:12 (21:12 UTC)

Pronòstic

L'informe es va fer fa 7 hores i 10 minuts, a les 14:02 UTC
Pronòstic vàlid del 14 a les 18 UTC al 15 a les 18 UTC
Vent 6 kt del Sud/Sud-Oest
Visibilitat: 6000 m
Núvols disperses a una alçada de 5000 ft
Temporalment
l' 15 a les 06 UTC al 15 a les 12 UTC
Escasses núvols a una alçada de 3000 ft, Cumulonimbus.
Núvols disperses a una alçada de 5000 ft

TAF: ZUUU 141402Z 1418/1518 20003MPS 6000 SCT050 TX36/1507Z TN25/1422Z TEMPO 1506/1512 FEW030CB SCT050

Observacions i pronòstics meteorològics de més de 4000 aeroports (METAR i TAF).

Les estacions disponibles són els punts grocs i vermells al mapa.

Posi el ratolí al punt desitjat per veure el nom de l'estació.

Feu clic per veure les observacions i els pronòstics meteorològics.

Per canviar el mapa: feu clic els botons verds amb una creu de color negre per apropar; al botó verd amb un guió per allunyar la imatge; o en les fletxes verdes per a mapes adjacents.


METAR-TAF: